Time;durP1;ratioP1;P1;durP2;ratioP2;P2;SDS_P1;SDS_P2;PMS_P1;PMS_P2;Temp;Humidity;BMP_temperature;BMP_pressure;BME280_temperature;BME280_humidity;BME280_pressure;Samples;Min_cycle;Max_cycle;Signal;HPM_P1;HPM_P2
2022/06/27 00:01:04;;;;;;;3.47;3.17;;;;;;;19.65;100.00;156413.44;5023343;28;20463;-81
2022/06/27 00:03:31;;;;;;;2.67;2.30;;;;;;;19.59;100.00;156397.81;5006922;28;20873;-80
2022/06/27 00:05:58;;;;;;;1.87;1.60;;;;;;;19.49;100.00;156371.72;5022875;28;20448;-80
2022/06/27 00:08:25;;;;;;;2.10;1.90;;;;;;;19.39;100.00;156348.28;5025962;28;20437;-81
2022/06/27 00:10:52;;;;;;;1.77;1.50;;;;;;;19.42;98.80;156356.09;5013452;28;20488;-81
2022/06/27 00:13:19;;;;;;;3.17;1.60;;;;;;;19.35;97.03;156336.50;5026508;28;21010;-80
2022/06/27 00:15:45;;;;;;;2.80;1.40;;;;;;;19.41;96.35;156353.47;5025434;28;20464;-81
2022/06/27 00:18:13;;;;;;;1.57;0.97;;;;;;;19.31;95.89;156326.06;5006277;28;20445;-80
2022/06/27 00:20:40;;;;;;;2.03;1.20;;;;;;;19.31;97.64;156327.38;5008267;28;20491;-81
2022/06/27 00:23:07;;;;;;;1.70;1.23;;;;;;;19.25;100.00;156311.72;5021312;28;20484;-82
2022/06/27 00:25:34;;;;;;;1.30;0.60;;;;;;;19.12;100.00;156276.53;5010084;28;20504;-82
2022/06/27 00:28:01;;;;;;;4.47;1.27;;;;;;;19.11;99.35;156273.94;5027391;28;20502;-82
2022/06/27 00:30:28;;;;;;;1.00;0.70;;;;;;;19.12;100.00;156277.84;5013458;28;20892;-83
2022/06/27 00:32:55;;;;;;;1.97;0.63;;;;;;;18.99;100.00;156243.97;5006779;28;20507;-82
2022/06/27 00:35:23;;;;;;;2.37;0.80;;;;;;;18.97;100.00;156238.75;5014307;28;20484;-82
2022/06/27 00:37:51;;;;;;;2.40;0.90;;;;;;;18.97;100.00;156237.44;5027762;28;20459;-82
2022/06/27 00:40:18;;;;;;;4.23;1.10;;;;;;;19.01;100.00;156249.16;5025988;28;20445;-82
2022/06/27 00:42:44;;;;;;;1.77;1.30;;;;;;;18.88;100.00;156215.28;5026897;28;20853;-83
2022/06/27 00:45:11;;;;;;;5.60;1.83;;;;;;;18.76;100.00;156184.03;4995311;28;20515;-84
2022/06/27 00:47:38;;;;;;;2.77;1.67;;;;;;;18.81;100.00;156197.06;5012905;28;20483;-84
2022/06/27 00:50:06;;;;;;;5.47;1.60;;;;;;;18.71;100.00;156172.31;5012443;28;20460;-84
2022/06/27 00:52:34;;;;;;;2.97;1.70;;;;;;;18.57;100.00;156134.53;5025329;28;20460;-85
2022/06/27 00:55:01;;;;;;;6.93;1.33;;;;;;;18.54;100.00;156128.00;5013207;28;20555;-83
2022/06/27 00:57:29;;;;;;;2.07;1.00;;;;;;;18.44;100.00;156100.59;5013953;28;20863;-82
2022/06/27 00:59:55;;;;;;;6.00;1.20;;;;;;;18.18;100.00;156035.50;5004989;28;20518;-82
2022/06/27 01:02:23;;;;;;;2.37;0.90;;;;;;;17.99;100.00;155986.00;5006034;28;20465;-83
2022/06/27 01:04:49;;;;;;;3.47;1.20;;;;;;;17.92;100.00;155967.78;4992776;28;20501;-83
2022/06/27 01:07:16;;;;;;;2.53;1.00;;;;;;;17.79;100.00;155933.91;5009904;28;20444;-83
2022/06/27 01:09:45;;;;;;;1.80;1.00;;;;;;;17.50;100.00;155858.38;5011745;28;20484;-83
2022/06/27 01:12:12;;;;;;;2.70;1.00;;;;;;;17.31;100.00;155810.22;5023785;28;20456;-83
2022/06/27 01:14:39;;;;;;;2.57;1.30;;;;;;;17.28;100.00;155801.09;5011520;28;20495;-84
2022/06/27 01:17:06;;;;;;;1.73;1.03;;;;;;;17.33;100.00;155814.13;5009560;28;20791;-83
2022/06/27 01:19:33;;;;;;;4.27;1.50;;;;;;;17.38;100.00;155827.13;5010765;28;20456;-83
2022/06/27 01:22:00;;;;;;;75.80;9.10;;;;;;;17.32;100.00;155812.81;5010655;28;20453;-83
2022/06/27 01:24:28;;;;;;;1.87;1.40;;;;;;;17.34;100.00;155816.72;5026264;28;20572;-83
2022/06/27 01:26:58;;;;;;;2.57;1.63;;;;;;;17.32;100.00;155812.81;4994279;28;20507;-82
2022/06/27 01:29:24;;;;;;;2.80;1.57;;;;;;;17.34;100.00;155818.00;5010551;28;20511;-82
2022/06/27 01:31:51;;;;;;;2.80;1.60;;;;;;;17.23;100.00;155789.41;5019283;28;20461;-82
2022/06/27 01:34:18;;;;;;;2.50;1.50;;;;;;;17.18;100.00;155775.09;5025385;28;20453;-81
2022/06/27 01:36:46;;;;;;;2.03;1.63;;;;;;;17.17;100.00;155772.47;5013824;28;20464;-82
2022/06/27 01:39:16;;;;;;;2.60;1.83;;;;;;;17.07;100.00;155746.44;4994794;28;20457;-81
2022/06/27 01:41:45;;;;;;;3.40;2.23;;;;;;;16.95;100.00;155717.81;5026232;28;20465;-82
2022/06/27 01:44:13;;;;;;;2.70;2.50;;;;;;;17.00;100.00;155729.50;5009911;28;20487;-81
2022/06/27 01:46:44;;;;;;;3.07;2.63;;;;;;;17.02;100.00;155736.00;5025224;28;20448;-82
2022/06/27 01:49:12;;;;;;;2.90;2.60;;;;;;;16.98;100.00;155725.63;5004781;28;20465;-82
2022/06/27 01:51:39;;;;;;;4.57;3.17;;;;;;;17.07;100.00;155746.44;5004695;28;20491;-82
2022/06/27 01:54:08;;;;;;;4.63;2.83;;;;;;;17.07;100.00;155747.75;5009573;28;20455;-82
2022/06/27 01:56:35;;;;;;;4.53;2.80;;;;;;;17.13;100.00;155762.06;5010383;28;20463;-82
2022/06/27 01:59:03;;;;;;;8.23;2.93;;;;;;;17.06;100.00;155745.13;5008708;28;20868;-82
2022/06/27 02:01:31;;;;;;;2.67;2.23;;;;;;;17.00;100.00;155730.81;5010181;28;20445;-82
2022/06/27 02:04:00;;;;;;;2.10;1.67;;;;;;;17.03;100.00;155737.31;5027083;28;20559;-81
2022/06/27 02:06:28;;;;;;;2.07;1.50;;;;;;;17.16;100.00;155769.84;5017399;28;20484;-81
2022/06/27 02:08:56;;;;;;;4.70;1.93;;;;;;;17.10;100.00;155755.56;5009179;28;20479;-81
2022/06/27 02:11:24;;;;;;;2.00;1.50;;;;;;;17.16;100.00;155769.84;5026174;28;20452;-82
2022/06/27 02:13:52;;;;;;;2.10;1.27;;;;;;;17.22;100.00;155785.47;5009974;28;20457;-81
2022/06/27 02:16:22;;;;;;;2.03;1.40;;;;;;;17.24;100.00;155790.66;4993868;28;20465;-81
2022/06/27 02:18:49;;;;;;;1.97;1.30;;;;;;;17.33;100.00;155815.44;5009926;28;20453;-81
2022/06/27 02:21:19;;;;;;;3.80;1.40;;;;;;;17.37;100.00;155825.81;4993669;28;20480;-82
2022/06/27 02:23:47;;;;;;;3.70;1.43;;;;;;;17.40;100.00;155833.63;5001081;28;20464;-81
2022/06/27 02:26:16;;;;;;;1.53;0.90;;;;;;;17.44;100.00;155842.75;5007715;28;20847;-81
2022/06/27 02:28:43;;;;;;;1.70;1.30;;;;;;;17.45;100.00;155845.34;5010832;28;20449;-82
2022/06/27 02:31:11;;;;;;;1.30;1.07;;;;;;;17.57;100.00;155876.66;5026057;28;20492;-82
2022/06/27 02:33:41;;;;;;;1.60;1.20;;;;;;;17.59;100.00;155883.16;5027368;28;20437;-82
2022/06/27 02:36:10;;;;;;;1.90;1.20;;;;;;;17.54;100.00;155868.84;5010539;28;20546;-82
2022/06/27 02:38:37;;;;;;;2.43;1.13;;;;;;;17.49;100.00;155855.78;5011166;28;20444;-82
2022/06/27 02:41:06;;;;;;;1.70;1.40;;;;;;;17.49;100.00;155857.09;5021170;28;20453;-81
2022/06/27 02:43:34;;;;;;;5.93;1.47;;;;;;;17.47;100.00;155850.56;4994790;28;20464;-82
2022/06/27 02:46:04;;;;;;;2.40;1.60;;;;;;;17.41;100.00;155834.94;5009992;28;20555;-81
2022/06/27 02:48:33;;;;;;;3.73;1.90;;;;;;;17.40;100.00;155832.31;4989100;28;20503;-81
2022/06/27 02:51:05;;;;;;;2.00;1.73;;;;;;;17.43;100.00;155840.13;5025124;28;20551;-81
2022/06/27 02:53:33;;;;;;;3.37;1.87;;;;;;;17.38;100.00;155828.44;5007170;28;20523;-81
2022/06/27 02:56:22;;;;;;;2.73;1.63;;;;;;;17.36;100.00;155821.94;5025750;28;20452;-81
2022/06/27 02:58:53;;;;;;;2.17;1.60;;;;;;;17.37;100.00;155824.50;5006554;28;20531;-81
2022/06/27 03:01:20;;;;;;;5.37;1.67;;;;;;;17.41;100.00;155834.94;5009777;28;20483;-81
2022/06/27 03:03:49;;;;;;;2.83;1.77;;;;;;;17.38;100.00;155827.13;5008484;28;20530;-81
2022/06/27 03:06:17;;;;;;;2.00;1.47;;;;;;;17.39;100.00;155829.75;5008901;28;20484;-81
2022/06/27 03:08:46;;;;;;;2.27;1.70;;;;;;;17.36;100.00;155823.25;5009236;28;20484;-81
2022/06/27 03:11:14;;;;;;;2.47;1.70;;;;;;;17.35;100.00;155819.31;5007777;28;21158;-81
2022/06/27 03:13:40;;;;;;;3.40;2.13;;;;;;;17.34;100.00;155816.72;5010446;28;20459;-81
2022/06/27 03:16:08;;;;;;;4.63;1.90;;;;;;;17.37;100.00;155824.50;4993372;28;21012;-81
2022/06/27 03:18:35;;;;;;;3.67;3.10;;;;;;;17.33;100.00;155814.13;5010998;28;20448;-81
2022/06/27 03:21:29;;;;;;;4.23;2.50;;;;;;;17.33;100.00;155814.13;5010330;28;20563;-81
2022/06/27 03:24:01;;;;;;;4.60;2.70;;;;;;;17.32;100.00;155811.50;5008496;28;20479;-81
2022/06/27 03:26:29;;;;;;;3.33;2.40;;;;;;;17.31;100.00;155808.91;5008256;28;20991;-81
2022/06/27 03:28:56;;;;;;;3.60;2.50;;;;;;;17.35;100.00;155819.31;5026128;28;20476;-81
2022/06/27 03:31:22;;;;;;;3.20;2.20;;;;;;;17.36;100.00;155821.94;5026552;28;20680;-81
2022/06/27 03:33:50;;;;;;;2.83;2.30;;;;;;;17.37;100.00;155825.81;5008091;28;20878;-81
2022/06/27 03:36:33;;;;;;;2.73;1.80;;;;;;;17.42;100.00;155838.81;5008266;28;20575;-81
2022/06/27 03:39:01;;;;;;;2.90;2.17;;;;;;;17.39;100.00;155831.06;5008602;28;20449;-81
2022/06/27 03:41:27;;;;;;;3.33;2.30;;;;;;;17.38;100.00;155828.44;4993833;28;20460;-76
2022/06/27 03:43:56;;;;;;;2.60;2.20;;;;;;;17.41;100.00;155836.25;5008645;28;20475;-76
2022/06/27 03:46:24;;;;;;;2.97;2.27;;;;;;;17.48;100.00;155853.16;4992611;28;20476;-76
2022/06/27 03:51:56;;;;;;;4.17;2.90;;;;;;;17.45;100.00;155846.63;5010991;28;20693;-76
2022/06/27 03:54:23;;;;;;;4.07;2.60;;;;;;;17.46;100.00;155847.94;5010092;28;20801;-76
2022/06/27 03:56:50;;;;;;;5.53;2.93;;;;;;;17.41;100.00;155834.94;5026903;28;20455;-76
2022/06/27 03:59:17;;;;;;;3.50;3.17;;;;;;;17.41;100.00;155836.25;5010371;28;20935;-76
2022/06/27 04:01:45;;;;;;;4.80;3.07;;;;;;;17.31;100.00;155808.91;5027059;28;20459;-76
2022/06/27 04:04:12;;;;;;;4.13;3.00;;;;;;;17.36;100.00;155821.94;4993727;28;20487;-76
2022/06/27 04:06:41;;;;;;;5.70;3.03;;;;;;;17.32;100.00;155811.50;4998253;28;20568;-76
2022/06/27 04:09:09;;;;;;;4.00;3.30;;;;;;;17.36;100.00;155823.25;4996018;28;20441;-76
2022/06/27 04:11:36;;;;;;;5.43;3.00;;;;;;;17.36;100.00;155821.94;5009981;28;20453;-76
2022/06/27 04:14:04;;;;;;;3.23;2.90;;;;;;;17.39;100.00;155831.06;4989491;28;20444;-76
2022/06/27 04:16:52;;;;;;;2.70;2.50;;;;;;;17.43;100.00;155840.13;5008916;28;20459;-76
2022/06/27 04:19:45;;;;;;;2.60;2.40;;;;;;;17.48;100.00;155854.47;5008994;28;20507;-76
2022/06/27 04:22:34;;;;;;;3.10;2.60;;;;;;;17.52;100.00;155863.59;5009612;28;20531;-76
2022/06/27 04:25:21;;;;;;;3.53;2.67;;;;;;;17.54;100.00;155868.84;5021105;28;20480;-75
2022/06/27 04:27:51;;;;;;;5.43;2.40;;;;;;;17.55;100.00;155872.72;5024165;28;20463;-75
2022/06/27 04:30:20;;;;;;;3.53;2.40;;;;;;;17.53;100.00;155867.53;4995762;28;21009;-75
2022/06/27 04:32:50;;;;;;;3.37;2.97;;;;;;;17.59;100.00;155881.84;4996126;28;20858;-75
2022/06/27 04:35:17;;;;;;;3.50;2.47;;;;;;;17.63;100.00;155892.28;5009761;28;20514;-77
2022/06/27 04:37:44;;;;;;;3.73;2.23;;;;;;;17.58;100.00;155879.22;5027273;28;20480;-77
2022/06/27 04:40:32;;;;;;;3.30;1.93;;;;;;;17.65;100.00;155897.47;5012389;28;20463;-77
2022/06/27 04:43:01;;;;;;;2.43;1.80;;;;;;;17.87;100.00;155953.47;5017142;28;20445;-75
2022/06/27 04:45:29;;;;;;;3.60;2.43;;;;;;;17.96;100.00;155976.88;5029207;28;20488;-77
2022/06/27 04:48:09;;;;;;;2.40;2.20;;;;;;;18.22;100.00;156044.59;5026991;28;20827;-77
2022/06/27 04:50:37;;;;;;;2.50;2.20;;;;;;;18.45;100.00;156103.22;5010169;28;20457;-77
2022/06/27 04:53:05;;;;;;;4.20;1.97;;;;;;;18.66;100.00;156158.00;5010872;28;20452;-75
2022/06/27 04:55:33;;;;;;;2.90;2.20;;;;;;;18.75;100.00;156181.41;4993818;28;20897;-76
2022/06/27 04:58:00;;;;;;;4.10;1.77;;;;;;;18.88;100.00;156215.28;5000319;28;20449;-77
2022/06/27 05:00:28;;;;;;;2.40;2.20;;;;;;;19.02;100.00;156251.78;5008931;28;20468;-75
2022/06/27 05:03:13;;;;;;;2.23;2.00;;;;;;;19.03;100.00;156254.41;5026471;28;20452;-77
2022/06/27 05:05:44;;;;;;;3.80;2.37;;;;;;;19.15;100.00;156285.66;5012192;28;20464;-75
2022/06/27 05:08:11;;;;;;;3.20;2.40;;;;;;;19.38;100.00;156345.66;5012366;28;20448;-75
2022/06/27 05:10:40;;;;;;;2.93;2.63;;;;;;;19.47;100.00;156366.50;5010492;28;20881;-75
2022/06/27 05:13:07;;;;;;;2.93;2.53;;;;;;;19.64;100.00;156412.16;5009490;28;20527;-77
2022/06/27 05:15:36;;;;;;;2.50;2.30;;;;;;;19.89;100.00;156476.03;5012682;28;20453;-76
2022/06/27 05:18:03;;;;;;;2.47;2.27;;;;;;;20.10;100.00;156529.47;5010512;28;20459;-76
2022/06/27 05:20:31;;;;;;;2.37;1.80;;;;;;;20.38;100.00;156603.91;5011004;28;20898;-76
2022/06/27 05:23:00;;;;;;;2.57;2.13;;;;;;;20.55;100.00;156648.22;5011533;28;20452;-76
2022/06/27 05:25:27;;;;;;;2.40;1.73;;;;;;;20.64;100.00;156671.72;5012103;28;20835;-76
2022/06/27 05:27:56;;;;;;;2.70;1.73;;;;;;;20.62;100.00;156666.47;5010698;28;20425;-76
2022/06/27 05:30:23;;;;;;;4.00;2.10;;;;;;;20.56;100.00;156650.84;5025539;28;20963;-76
2022/06/27 05:32:50;;;;;;;3.33;1.50;;;;;;;20.49;100.00;156632.56;5000427;28;20495;-76
2022/06/27 05:35:20;;;;;;;1.60;1.50;;;;;;;20.35;100.00;156594.75;5011769;28;20484;-76
2022/06/27 05:37:47;;;;;;;1.80;1.50;;;;;;;20.20;100.00;156556.84;5028492;28;20472;-76
2022/06/27 05:40:15;;;;;;;3.37;1.93;;;;;;;19.93;100.00;156486.47;5028435;28;20849;-76
2022/06/27 05:42:42;;;;;;;3.23;1.77;;;;;;;19.86;100.00;156468.19;5023517;28;20467;-76
2022/06/27 05:45:11;;;;;;;5.13;1.93;;;;;;;19.81;100.00;156455.16;4992061;28;20819;-76
2022/06/27 05:48:00;;;;;;;1.80;1.50;;;;;;;19.81;100.00;156455.16;5009570;28;20933;-76
2022/06/27 05:50:27;;;;;;;2.87;1.87;;;;;;;19.86;100.00;156469.50;5028522;28;20452;-76
2022/06/27 05:52:56;;;;;;;5.10;2.17;;;;;;;19.93;100.00;156486.47;5027719;28;20444;-76
2022/06/27 05:55:23;;;;;;;2.20;2.03;;;;;;;19.92;100.00;156485.16;5025630;28;20444;-75
2022/06/27 05:57:52;;;;;;;2.17;1.97;;;;;;;19.84;100.00;156463.00;5009103;28;20919;-76
2022/06/27 06:00:21;;;;;;;4.03;1.80;;;;;;;19.87;100.00;156470.81;5019962;28;20479;-75
2022/06/27 06:02:48;;;;;;;2.60;2.10;;;;;;;19.92;100.00;156483.84;5007999;28;20441;-75
2022/06/27 06:05:18;;;;;;;2.50;2.30;;;;;;;19.79;100.00;156451.28;5023896;28;20491;-76
2022/06/27 06:07:45;;;;;;;2.67;2.30;;;;;;;19.82;100.00;156457.78;5022757;28;20522;-76
2022/06/27 06:10:12;;;;;;;2.43;2.17;;;;;;;19.86;100.00;156468.19;5019147;28;20495;-73
2022/06/27 06:12:42;;;;;;;2.80;2.50;;;;;;;19.87;100.00;156470.81;5026801;28;20476;-75
2022/06/27 06:15:09;;;;;;;2.50;2.17;;;;;;;19.88;100.00;156473.44;5008767;28;20857;-75
2022/06/27 06:17:37;;;;;;;2.57;1.80;;;;;;;19.91;100.00;156482.53;5009237;28;20531;-76
2022/06/27 06:20:06;;;;;;;2.80;1.50;;;;;;;19.83;100.00;156460.41;5008475;28;20460;-76
2022/06/27 06:22:33;;;;;;;2.50;1.67;;;;;;;19.72;100.00;156431.72;5007928;28;20452;-76
2022/06/27 06:25:02;;;;;;;2.57;1.50;;;;;;;19.65;100.00;156413.44;5008322;28;20453;-75
2022/06/27 06:27:29;;;;;;;2.40;1.80;;;;;;;19.66;100.00;156416.06;5009591;28;20890;-75
2022/06/27 06:29:56;;;;;;;1.77;1.37;;;;;;;19.70;100.00;156426.47;5004159;28;20572;-75
2022/06/27 06:32:24;;;;;;;2.53;1.97;;;;;;;20.01;100.00;156508.59;5020372;28;20559;-75
2022/06/27 06:34:53;;;;;;;2.53;1.70;;;;;;;20.16;100.00;156546.44;5021332;28;20480;-75
2022/06/27 06:37:20;;;;;;;2.17;1.50;;;;;;;20.32;100.00;156588.25;5016411;28;20855;-73
2022/06/27 06:39:47;;;;;;;1.70;1.43;;;;;;;20.46;100.00;156624.78;5004211;28;20817;-81
2022/06/27 06:42:14;;;;;;;1.90;1.70;;;;;;;20.63;100.00;156669.09;5004485;28;20500;-82
2022/06/27 06:45:08;;;;;;;3.60;1.60;;;;;;;21.04;100.00;156773.50;5006877;28;20619;-81
2022/06/27 06:47:46;;;;;;;3.03;1.97;;;;;;;21.64;100.00;156930.16;5016475;28;20971;-81
2022/06/27 06:50:20;;;;;;;4.40;1.63;;;;;;;21.77;97.09;156964.09;5024357;28;20563;-82
2022/06/27 06:52:49;;;;;;;1.97;1.60;;;;;;;21.71;100.00;156948.44;5009413;28;20925;-81
2022/06/27 06:55:16;;;;;;;3.90;1.73;;;;;;;21.92;100.00;157000.72;5022731;28;20468;-82
2022/06/27 06:57:43;;;;;;;2.00;1.50;;;;;;;21.88;95.31;156990.25;5006835;28;21190;-83
2022/06/27 07:00:11;;;;;;;4.40;1.67;;;;;;;21.72;93.08;156951.06;5000498;28;20465;-83
2022/06/27 07:02:38;;;;;;;3.00;2.00;;;;;;;21.95;91.81;157009.84;5005771;28;20436;-82
2022/06/27 07:05:11;;;;;;;1.80;1.40;;;;;;;22.13;91.28;157055.56;5006885;28;20983;-81
2022/06/27 07:07:40;;;;;;;3.40;1.90;;;;;;;21.83;91.99;156979.78;5019964;28;20466;-81
2022/06/27 07:10:08;;;;;;;2.07;1.50;;;;;;;21.74;93.86;156956.25;5010101;28;20436;-82
2022/06/27 07:12:34;;;;;;;1.80;1.40;;;;;;;21.65;92.68;156931.47;5008858;28;20448;-81
2022/06/27 07:15:01;;;;;;;3.13;1.67;;;;;;;21.53;94.24;156900.13;5022799;28;20971;-81
2022/06/27 07:17:29;;;;;;;4.13;1.30;;;;;;;21.59;93.18;156917.13;5020945;28;20472;-81
2022/06/27 07:19:59;;;;;;;1.83;1.63;;;;;;;21.60;92.74;156919.75;5006521;28;20459;-82
2022/06/27 07:22:26;;;;;;;2.17;1.67;;;;;;;21.67;92.33;156936.69;5010224;28;20924;-81
2022/06/27 07:24:54;;;;;;;3.33;1.80;;;;;;;21.46;90.88;156883.19;5004459;28;20459;-83
2022/06/27 07:27:21;;;;;;;2.10;1.67;;;;;;;21.15;93.00;156802.25;5020944;28;20480;-81
2022/06/27 07:29:48;;;;;;;3.90;1.50;;;;;;;21.30;93.27;156841.41;5024447;28;20472;-82
2022/06/27 07:32:16;;;;;;;1.67;1.20;;;;;;;21.41;92.57;156870.13;5002222;28;20837;-82
2022/06/27 07:34:42;;;;;;;2.00;1.70;;;;;;;21.58;90.59;156914.47;5000610;28;20547;-81
2022/06/27 07:37:09;;;;;;;2.67;1.33;;;;;;;22.13;90.70;157055.56;5015211;28;20441;-82
2022/06/27 07:39:37;;;;;;;2.10;1.47;;;;;;;22.16;88.50;157063.41;5005774;28;20520;-81
2022/06/27 07:42:05;;;;;;;1.97;1.33;;;;;;;21.98;89.05;157017.69;5025289;28;21006;-82
2022/06/27 07:44:34;;;;;;;1.60;1.30;;;;;;;21.80;91.05;156971.94;5021644;28;20449;-82
2022/06/27 07:47:03;;;;;;;1.97;1.43;;;;;;;21.85;89.21;156985.00;4993983;28;20484;-81
2022/06/27 07:49:30;;;;;;;1.80;1.30;;;;;;;21.92;91.05;157000.72;5023160;28;20456;-81
2022/06/27 07:51:57;;;;;;;1.70;1.50;;;;;;;21.88;93.75;156990.25;4992493;28;20858;-82
2022/06/27 07:54:24;;;;;;;1.27;1.10;;;;;;;21.85;91.68;156985.00;5002015;28;20450;-82
2022/06/27 07:56:52;;;;;;;1.53;1.27;;;;;;;21.54;90.06;156904.06;5002167;28;20452;-81
2022/06/27 07:59:20;;;;;;;1.47;1.20;;;;;;;21.42;88.62;156871.44;5006511;28;20507;-81
2022/06/27 08:01:47;;;;;;;1.90;1.50;;;;;;;21.24;92.22;156827.03;5026250;28;20476;-81
2022/06/27 08:04:14;;;;;;;2.77;1.63;;;;;;;21.16;91.66;156804.84;5004763;28;20550;-81
2022/06/27 08:06:42;;;;;;;1.80;1.50;;;;;;;21.11;92.82;156793.13;5012946;28;20460;-81
2022/06/27 08:09:10;;;;;;;1.70;1.57;;;;;;;21.37;93.05;156858.34;5013262;28;20440;-81
2022/06/27 08:11:38;;;;;;;2.23;1.40;;;;;;;21.81;91.34;156974.56;5026271;28;20828;-81
2022/06/27 08:14:06;;;;;;;1.80;1.60;;;;;;;22.03;87.40;157029.47;5033743;28;20539;-81
2022/06/27 08:16:37;;;;;;;1.50;1.30;;;;;;;22.13;86.65;157055.56;5011390;28;20449;-81
2022/06/27 08:19:04;;;;;;;1.40;1.03;;;;;;;22.47;87.19;157144.38;5003827;28;20476;-74
2022/06/27 08:21:31;;;;;;;3.80;1.53;;;;;;;22.53;84.89;157160.03;5023973;28;20463;-74
2022/06/27 08:24:16;;;;;;;1.60;1.00;;;;;;;23.06;84.93;157297.25;5010226;28;20491;-74
2022/06/27 08:26:44;;;;;;;2.27;1.20;;;;;;;23.38;82.75;157380.97;5010222;28;20801;-82
2022/06/27 08:29:11;;;;;;;1.50;1.20;;;;;;;23.48;79.96;157407.09;5019282;28;20439;-82
2022/06/27 08:31:41;;;;;;;2.23;1.53;;;;;;;23.66;78.95;157451.56;5013459;28;20428;-82
2022/06/27 08:34:09;;;;;;;2.33;1.20;;;;;;;24.20;78.81;157594.09;4999340;28;20538;-84
2022/06/27 08:36:37;;;;;;;1.60;1.20;;;;;;;24.35;77.46;157630.75;5014101;28;20484;-84
2022/06/27 08:39:07;;;;;;;1.37;1.03;;;;;;;24.63;80.17;157703.97;5010571;28;20530;-84
2022/06/27 08:41:34;;;;;;;1.93;1.10;;;;;;;24.45;76.25;157656.91;5008689;28;20907;-84
2022/06/27 08:44:01;;;;;;;1.40;1.03;;;;;;;24.45;76.54;157656.91;5009432;28;20488;-84
2022/06/27 08:46:29;;;;;;;1.60;1.00;;;;;;;23.90;74.54;157514.31;5010807;28;20812;-84
2022/06/27 08:48:57;;;;;;;1.83;1.10;;;;;;;23.68;76.61;157458.09;5008835;28;20697;-84
2022/06/27 08:51:25;;;;;;;1.47;1.17;;;;;;;23.70;77.65;157463.31;5017242;28;20496;-83
2022/06/27 08:53:53;;;;;;;1.20;1.00;;;;;;;23.86;75.32;157505.16;5010712;28;20492;-84
2022/06/27 08:56:20;;;;;;;1.60;1.27;;;;;;;23.95;74.42;157528.69;5006648;28;20488;-84
2022/06/27 08:58:47;;;;;;;1.90;1.30;;;;;;;23.59;73.85;157435.84;5013690;28;20433;-83
2022/06/27 09:01:16;;;;;;;1.60;1.20;;;;;;;23.73;75.16;157471.16;5030174;28;20514;-84
2022/06/27 09:03:56;;;;;;;2.10;1.03;;;;;;;23.74;77.08;157472.47;4997769;28;20448;-83
2022/06/27 09:06:26;;;;;;;2.10;1.43;;;;;;;23.62;78.95;157442.38;5027327;28;20958;-76
2022/06/27 09:08:55;;;;;;;1.60;1.17;;;;;;;23.30;76.54;157358.72;5008805;28;20452;-76
2022/06/27 09:11:27;;;;;;;1.80;1.47;;;;;;;22.96;78.03;157272.44;5027326;28;21006;-74
2022/06/27 09:13:54;;;;;;;2.90;1.23;;;;;;;22.93;79.02;157264.59;5005096;28;20437;-74
2022/06/27 09:16:21;;;;;;;2.77;1.50;;;;;;;23.18;78.66;157327.34;5005715;28;20528;-74
2022/06/27 09:18:48;;;;;;;1.20;1.07;;;;;;;22.85;79.45;157242.38;5009140;28;20484;-73
2022/06/27 09:21:15;;;;;;;1.90;1.60;;;;;;;22.60;80.62;157178.34;5007920;28;20464;-74
2022/06/27 09:23:47;;;;;;;3.13;1.47;;;;;;;22.34;82.31;157110.44;5020789;28;20507;-74
2022/06/27 09:26:18;;;;;;;1.80;1.37;;;;;;;22.25;83.20;157088.22;5023401;28;20456;-74
2022/06/27 09:28:51;;;;;;;1.40;1.30;;;;;;;22.25;83.42;157088.22;5023911;28;20989;-74
2022/06/27 09:31:38;;;;;;;1.67;1.57;;;;;;;22.04;85.41;157032.03;5020442;28;20453;-74
2022/06/27 09:34:14;;;;;;;5.00;1.73;;;;;;;22.12;84.96;157052.94;5010239;28;20515;-73
2022/06/27 09:36:43;;;;;;;2.00;1.60;;;;;;;22.16;85.68;157064.69;4971489;28;20450;-74
2022/06/27 09:39:19;;;;;;;2.67;1.40;;;;;;;22.11;83.97;157050.31;4966249;28;20446;-73
2022/06/27 09:41:56;;;;;;;1.70;1.50;;;;;;;22.22;84.47;157080.38;4966946;28;20450;-75
2022/06/27 09:44:26;;;;;;;1.93;1.60;;;;;;;22.26;84.35;157089.53;4970011;28;20818;-74
2022/06/27 09:47:00;;;;;;;1.70;1.60;;;;;;;22.33;84.10;157107.78;4986881;28;21055;-75
2022/06/27 09:49:32;;;;;;;2.47;1.40;;;;;;;22.12;86.87;157054.25;4985272;28;20459;-74
2022/06/27 09:52:01;;;;;;;4.03;2.07;;;;;;;22.01;88.13;157024.22;4986105;28;20918;-74
2022/06/27 09:54:29;;;;;;;2.80;2.50;;;;;;;21.91;87.52;156998.09;4984312;28;20447;-74
2022/06/27 09:56:57;;;;;;;2.83;2.13;;;;;;;21.48;90.99;156888.38;4983844;28;20451;-74
2022/06/27 09:59:24;;;;;;;2.27;2.07;;;;;;;21.78;90.10;156965.41;4968888;28;20828;-74
2022/06/27 10:01:51;;;;;;;2.37;2.17;;;;;;;21.98;90.22;157016.38;4978807;28;21076;-75
2022/06/27 10:04:18;;;;;;;4.20;2.10;;;;;;;22.08;87.59;157042.53;4959034;28;20447;-75
2022/06/27 10:06:47;;;;;;;2.63;2.43;;;;;;;22.09;87.07;157046.41;4961170;28;20491;-75
2022/06/27 10:09:15;;;;;;;11.80;2.60;;;;;;;21.94;87.23;157005.94;4984491;28;20490;-74
2022/06/27 10:11:43;;;;;;;4.53;2.23;;;;;;;21.98;88.08;157016.38;4987172;28;20608;-75
2022/06/27 10:14:15;;;;;;;2.37;2.10;;;;;;;22.16;87.38;157063.41;4973575;28;20542;-75
2022/06/27 10:16:52;;;;;;;3.00;2.30;;;;;;;22.28;87.48;157094.75;4971379;28;20537;-75
2022/06/27 10:19:19;;;;;;;1.83;1.73;;;;;;;22.55;88.38;157165.28;4968851;28;20481;-75
2022/06/27 10:21:47;;;;;;;3.37;1.97;;;;;;;22.69;86.87;157200.63;4972126;28;20422;-75
2022/06/27 10:24:32;;;;;;;1.73;1.63;;;;;;;22.89;83.84;157254.16;4985507;28;20553;-75
2022/06/27 10:27:03;;;;;;;3.47;2.20;;;;;;;22.99;84.12;157280.28;4970132;28;20848;-75
2022/06/27 10:29:48;;;;;;;2.93;2.30;;;;;;;22.90;86.25;157255.50;4967303;28;20434;-85
2022/06/27 10:32:48;;;;;;;3.23;1.83;;;;;;;22.85;86.24;157243.69;4971031;28;20848;-83
2022/06/27 10:35:16;;;;;;;2.60;2.40;;;;;;;22.62;83.83;157182.25;4983145;28;20599;-82
2022/06/27 10:37:47;;;;;;;2.20;2.10;;;;;;;22.41;84.65;157128.69;5006481;28;20467;-83
2022/06/27 10:40:51;;;;;;;2.63;2.43;;;;;;;22.25;86.44;157088.22;5025110;28;20539;-83
2022/06/27 10:43:42;;;;;;;3.00;2.70;;;;;;;22.23;87.22;157081.69;5009475;28;20908;-83
2022/06/27 10:46:53;;;;;;;2.83;2.60;;;;;;;22.17;89.13;157066.00;5007177;28;20453;-83
2022/06/27 10:49:24;;;;;;;2.40;2.20;;;;;;;22.04;87.43;157032.03;5017276;28;20551;-83
2022/06/27 10:51:53;;;;;;;3.13;2.83;;;;;;;21.99;88.64;157020.31;5008245;28;20563;-83
2022/06/27 10:54:20;;;;;;;3.00;2.77;;;;;;;21.94;88.37;157005.94;5023592;28;20446;-83
2022/06/27 10:56:49;;;;;;;2.80;2.50;;;;;;;21.96;87.75;157012.47;5027611;28;20470;-82
2022/06/27 11:00:04;;;;;;;3.10;2.80;;;;;;;21.93;88.57;157003.31;5010158;28;20523;-83
2022/06/27 11:02:33;;;;;;;3.47;2.80;;;;;;;21.80;87.62;156971.94;5010972;28;20433;-83
2022/06/27 11:05:01;;;;;;;2.80;2.60;;;;;;;21.79;88.13;156969.31;5012123;28;20803;-83
2022/06/27 11:07:29;;;;;;;4.97;3.60;;;;;;;21.76;90.11;156960.22;5010166;28;20515;-83
2022/06/27 11:09:56;;;;;;;3.00;2.70;;;;;;;21.74;88.28;156956.25;5009571;28;20515;-83
2022/06/27 11:12:29;;;;;;;3.10;2.87;;;;;;;21.66;86.56;156934.06;5009040;28;20538;-83
2022/06/27 11:14:58;;;;;;;3.50;3.20;;;;;;;21.67;88.78;156938.00;5000097;28;20861;-83
2022/06/27 11:17:47;;;;;;;5.80;4.23;;;;;;;21.73;88.13;156952.38;4998051;28;20998;-83
2022/06/27 11:20:19;;;;;;;3.90;3.17;;;;;;;21.69;92.99;156941.91;5007889;28;20555;-83
2022/06/27 11:22:47;;;;;;;4.67;3.20;;;;;;;21.71;89.69;156948.44;5007811;28;20494;-83
2022/06/27 11:25:15;;;;;;;3.17;2.87;;;;;;;21.76;87.71;156961.47;5006265;28;20452;-83
2022/06/27 11:27:53;;;;;;;3.83;3.53;;;;;;;21.79;87.74;156969.31;5006082;28;20548;-83
2022/06/27 11:33:17;;;;;;;3.33;3.03;;;;;;;21.66;86.73;156934.06;5021103;28;20480;-83
2022/06/27 11:35:44;;;;;;;3.33;3.03;;;;;;;21.74;89.22;156954.94;5005067;28;21106;-83
2022/06/27 11:38:11;;;;;;;3.30;3.00;;;;;;;21.65;86.20;156932.78;5026104;28;20485;-83